Station: Dunedoo  

  Atmospheric Gas Attenuation - ITU Rec 676-11   ----------------- dB/100km -----------------
Date Time Temp RH % AH g/m3 Dew Point Wind Direction Speed kph Gust kph Barometer mB Rainfall Since 9am 24GHz 47GHz 76GHz 122GHz 134GHz 241GHz
08/05 09:00 8.1 66 5.49 2.2 17 1013.1 0 13.2 22.5 30.1 78.4 64.1 217.5
07/05 09:00 11.1 77 7.76 7.2 33 1013.1 0 17.9 25.3 37.7 98.9 90.5 310.7
06/05 09:00 13 71 8.05 8 9 1013.1 0.2 18.5 25.2 38.0 99.6 92.1 316.5
05/05 09:00 10.6 97 9.47 10.2 4 1013.1 8 21.6 28.3 45.1 118.7 114.8 395.3
04/05 09:00 16.6 91 12.85 15.1 9 1013.1 2 28.5 32.2 56.1 148.1 153.1 529.9
03/05 09:00 18.7 67 10.73 12.6 17 1013.1 0 23.9 27.9 45.7 120.4 119.7 413.7
02/05 09:00 20 67 11.58 13.7 17 1013.1 0 25.6 28.8 48.4 127.5 129.0 446.3
29/04 09:00 15.2 80 10.38 11.8 17 1013.1 0 23.3 28.4 46.3 121.9 120.4 415.8
28/04 09:00 16.5 71 9.97 11.2 9 1013.1 0 22.4 27.3 43.9 115.4 112.9 389.6
27/04 09:00 16.3 71 9.85 11 9 1013.1 0 22.1 27.2 43.5 114.4 111.6 385.0
26/04 09:00 16.8 78 11.15 12.9 17 1013.1 0 24.9 29.2 48.6 128.0 128.5 444.1
24/04 09:00 16.3 69 9.57 10.6 17 1013.1 0 21.5 26.7 42.4 111.4 107.9 372.0
23/04 09:00 17 57 8.25 8.4 44 1013.1 0 18.7 24.4 36.9 96.7 90.0 309.6
21/04 09:00 15.5 65 8.59 9 24 1013.1 0 19.5 25.4 38.9 102.1 96.1 330.8
20/04 09:00 16.5 58 8.14 8.2 24 1013.1 0 18.5 24.4 36.7 96.2 89.2 306.7
19/04 09:00 14.5 69 8.58 8.9 17 1013.1 0 19.5 25.7 39.4 103.3 97.2 334.5
17/04 09:00 17.4 46 6.82 5.7 17 1013.1 0 15.7 22.2 31.5 82.2 72.3 247.5
06/04 09:00 16.2 69 9.51 10.5 17 1013.1 0 21.4 26.7 42.2 110.9 107.2 369.7
02/04 09:00 19.7 73 12.39 14.8 17 1013.1 0 27.3 30.3 52.0 137.0 140.6 486.6
01/04 09:00 17.7 78 11.77 13.9 17 1013.1 0 26.1 29.9 50.7 133.5 135.6 468.9
30/03 09:00 18.2 66 10.26 11.8 33 1013.1 0 22.9 27.3 44.1 116.1 114.3 394.6
29/03 09:00 16 61 8.31 8.5 24 1013.1 0 18.9 24.8 37.6 98.6 92.0 316.2
28/03 09:00 11.6 64 6.65 5 9 1013.1 0.4 15.5 23.4 33.1 86.7 75.6 258.5
27/03 09:00 10 70 6.58 4.8 33 1013.1 7 15.4 23.7 33.5 87.7 76.3 260.5
26/03 09:00 21.8 63 12.09 14.6 17 1013.1 0 26.6 29.1 49.4 130.1 132.8 459.7
13/03 09:00 20.7 70 12.6 15 33 1013.1 0 27.7 30.3 52.2 137.6 141.6 490.4
20/09 09:00 16.4 69 9.63 10.7 24 1013.1 9 21.7 26.8 42.6 111.9 108.5 374.3
23/07 09:00 11.2 89 9.02 9.4 9 1013.1 15 20.6 27.4 42.9 112.7 107.6 370.2
11/07 09:00 7.1 73 5.7 2.6 4 1013.1 0 13.7 23.1 31.3 81.6 67.6 229.7
10/07 09:00 9.9 53 4.95 0.8 33 1013.1 0 12.0 21.3 27.4 71.4 56.1 189.6
04/07 09:00 5.7 97 6.91 5.3 4 1013.1 0 16.3 25.4 36.8 96.3 85.2 291.1
30/06 09:00 5.8 94 6.74 4.9 9 1013.1 0 15.9 25.1 36.0 94.3 82.7 282.5
12/06 09:00 4.7 92 6.13 3.5 4 1013.1 0 14.7 24.4 34.0 88.8 75.5 257.1
29/05 09:00 8.7 87 7.53 6.6 9 1013.1 0 17.5 25.6 37.9 99.4 90.3 309.3
28/05 09:00 11.5 73 7.54 6.8 24 1013.1 0 17.4 24.8 36.7 96.1 87.2 298.9
27/05 09:00 12.4 61 6.67 5.2 17 1013.1 29 15.5 23.2 32.9 86.0 75.1 256.7
26/05 09:00 11.2 91 9.23 9.8 9 1013.1 0.4 21.1 27.7 43.8 115.0 110.5 380.4
23/05 09:00 12.9 94 10.6 12 4 1013.1 7 23.9 29.5 48.7 128.2 127.3 439.3
22/05 09:00 14.7 99 12.46 14.5 1013.1 17 27.8 32.2 55.8 147.0 151.2 523.0
15/05 09:00 14.7 91 11.46 13.3 9 1013.1 0 25.7 30.4 51.3 135.1 136.5 471.8
12/05 09:00 16.5 78 10.95 12.6 9 1013.1 0 24.5 28.9 48.0 126.2 126.2 436.1
09/05 09:00 13.9 74 8.87 9.3 24 1013.1 0 20.2 26.3 40.8 107.2 101.8 350.5
08/05 09:00 12.8 92 10.31 11.5 4 1013.1 0 23.3 29.1 47.5 124.9 123.3 425.4
07/05 09:00 14.2 79 9.65 10.7 4 1013.1 0 21.8 27.5 43.9 115.3 111.9 385.9
05/05 09:00 15.8 85 11.44 13.3 17 1013.1 0.2 25.6 30.0 50.5 133.0 134.3 464.2
02/05 09:00 12.5 85 9.35 10 17 1013.1 0 21.3 27.5 43.6 114.5 110.3 379.9
29/04 09:00 16.7 81 11.51 13.4 4 1013.1 0 25.7 29.8 50.2 132.2 133.7 462.2
28/04 09:00 12.4 99 10.82 12.2 4 1013.1 46 24.4 30.1 50.0 131.6 131.3 453.3
23/04 09:00 17.9 83 12.67 15 24 1013.1 0.2 28.1 31.4 54.4 143.5 147.9 512.0
22/04 09:00 12.2 82 8.85 9.3 9 1013.1 0 20.2 26.8 41.6 109.3 103.8 357.3
17/04 09:00 15.1 75 9.68 10.8 4 1013.1 0 21.8 27.3 43.5 114.3 111.0 382.9
16/04 09:00 15.2 73 9.48 10.4 24 1013.1 0 21.4 26.9 42.6 112.0 108.2 373.0
15/04 09:00 19.3 71 11.78 14 17 1013.1 0 26.1 29.4 49.7 130.9 132.9 459.8
14/04 09:00 17.2 90 13.18 15.5 4 1013.1 0 29.2 32.6 57.2 150.8 156.7 542.6
11/04 09:00 17.2 88 12.89 15.2 9 1013.1 3 28.6 32.1 55.9 147.4 152.5 527.8
10/04 09:00 17.3 84 12.37 14.6 9 1013.1 0 27.5 31.1 53.5 141.1 144.8 501.0
09/04 09:00 17.4 76 11.26 13.2 17 1013.1 0 25.1 29.2 48.7 128.2 129.0 446.0
07/04 09:00 14.6 62 7.76 7.5 4 1013.1 0 17.8 24.3 36.1 94.6 86.6 297.2
02/04 09:00 15.4 77 10.12 11.4 17 1013.1 0 22.8 27.9 45.1 118.7 116.6 402.3
31/03 09:00 17.8 89 13.51 16 9 1013.1 0.8 29.9 33.0 58.2 153.6 160.3 555.2
28/03 09:00 19.2 76 12.53 15 17 1013.1 0 27.7 30.7 52.9 139.5 143.4 496.6
27/03 09:00 19.9 82 14.09 16.8 17 1013.1 0 31.0 33.2 59.2 156.2 164.3 569.3
25/03 09:00 20.8 81 14.67 17.4 17 1013.1 3 32.1 33.9 61.1 161.2 170.7 591.9
24/03 09:00 21.1 83 15.29 18.1 17 1013.1 0 33.4 34.9 63.6 168.0 179.1 621.3
21/03 09:00 23.4 66 13.88 16.7 9 1013.1 0.1 30.2 31.5 55.7 147.0 154.0 534.0
20/03 09:00 23.2 56 11.64 14 9 1013.1 0 25.5 27.9 46.7 123.1 124.6 431.2
19/03 09:00 18.9 75 12.15 14.5 9 1013.1 0 26.9 30.2 51.5 135.7 138.7 480.0
18/03 09:00 16.1 71 9.73 10.8 33 1013.1 0 21.9 27.0 43.1 113.4 110.3 380.4
17/03 09:00 16.8 38 5.43 2.5 24 1013.1 0 12.7 20.4 26.8 69.9 56.8 193.0
14/03 09:00 21.3 80 14.91 17.8 9 1013.1 0 32.6 34.1 61.7 163.0 173.1 600.3
13/03 09:00 21.5 81 15.27 18.2 9 1013.1 0 33.3 34.7 63.2 166.9 177.9 617.0
12/03 09:00 19.9 83 14.26 17 24 1013.1 0 31.3 33.5 59.9 158.2 166.7 578.0
11/03 09:00 20.2 93 16.26 19.1 9 1013.1 4 35.6 37.1 68.9 182.0 196.0 680.0
10/03 09:00 20.6 81 14.5 17.2 17 1013.1 0 31.8 33.6 60.5 159.6 168.7 584.9
06/03 09:00 21.5 70 13.2 15.8 33 1013.1 0 28.9 31.0 54.2 142.9 148.4 514.1
05/03 09:00 20.6 70 12.53 14.9 33 1013.1 0 27.6 30.2 52.0 137.0 140.8 487.7
04/03 09:00 22.1 67 13.08 15.7 24 1013.1 0 28.6 30.6 53.3 140.4 145.6 504.4
03/03 09:00 22.3 69 13.62 16.5 33 1013.1 0 29.8 31.5 55.4 146.1 152.6 529.0
28/02 09:00 25.7 52 12.45 15.1 9 1013.1 0 27.1 28.4 48.4 127.6 130.8 453.4
27/02 09:00 25.5 61 14.44 17.6 4 1013.1 0 31.3 31.7 56.5 149.2 157.4 546.1
26/02 09:00 21.9 76 14.66 17.6 24 1013.1 0 32.0 33.4 60.2 158.8 168.1 583.0
25/02 09:00 22.8 71 14.43 17.4 24 1013.1 0 31.5 32.7 58.5 154.3 162.9 564.9
24/02 09:00 25.3 50 11.71 14.4 17 1013.1 0 25.5 27.4 45.8 120.6 122.1 423.0
21/02 09:00 19.9 73 12.54 14.9 33 1013.1 0 27.6 30.5 52.5 138.3 142.3 492.6
20/02 09:00 20.7 76 13.68 16.3 24 1013.1 0 30.0 32.2 56.8 149.9 156.7 543.0
19/02 09:00 19.3 68 11.28 13.2 1013.1 0 25.0 28.6 47.6 125.4 126.1 436.2
18/02 09:00 16.6 69 9.75 10.9 9 1013.1 0 21.9 26.9 43.0 112.9 109.8 378.9
17/02 09:00 16.2 57 7.86 7.8 33 1013.1 0 17.9 24.1 35.8 93.7 86.1 295.6
14/02 09:00 24.4 69 15.36 18.3 9 1013.1 0 33.3 33.7 61.2 161.8 172.5 598.6
13/02 09:00 21.3 83 15.47 18.3 24 1013.1 0 33.8 35.1 64.3 169.7 181.3 628.9
12/02 09:00 20.3 79 13.89 16.6 24 1013.1 5 30.5 32.7 58.0 153.1 160.5 556.3
11/02 09:00 17.2 91 13.33 15.7 17 1013.1 25 29.5 32.9 57.8 152.6 158.9 550.3
10/02 09:00 19.2 96 15.83 18.6 9 1013.1 44 34.7 36.7 67.7 179.0 192.0 665.8
04/02 09:00 23.9 68 14.71 17.8 1013.1 0 32.0 32.7 58.8 155.3 164.5 570.5
31/01 09:00 24.1 72 15.75 18.7 24 1013.1 0 34.1 34.5 63.2 166.9 178.7 620.3
30/01 09:00 22.3 76 15.01 18 17 1013.1 0.6 32.7 33.9 61.4 162.1 172.2 597.5
29/01 09:00 21.7 73 13.92 16.7 17 1013.1 0 30.5 32.2 57.1 150.7 158.0 547.8
28/01 09:00 29.5 49 14.46 17.7 17 1013.1 0 31.0 30.3 53.8 142.0 149.7 519.9
24/01 09:00 20.7 48 8.64 9.5 9 1013.1 0 19.3 24.0 36.7 96.2 90.6 312.0
23/01 09:00 21.4 57 10.69 12.6 44 1013.1 0 23.6 27.0 44.0 115.9 115.1 398.0

Last Refresh: 08-May-2026 12:10:11

Bureau of Meteorology